sensor_id;sensor_type;location;lat;lon;timestamp;P1;durP1;ratioP1;P2;durP2;ratioP2
60494;SDS011;46342;49.046;11.920;2023-11-21T00:02:13;2.00;;;1.00;;
60494;SDS011;46342;49.046;11.920;2023-11-21T00:04:39;2.67;;;0.80;;
60494;SDS011;46342;49.046;11.920;2023-11-21T00:07:04;1.38;;;1.13;;
60494;SDS011;46342;49.046;11.920;2023-11-21T00:09:31;1.20;;;1.00;;
60494;SDS011;46342;49.046;11.920;2023-11-21T00:11:57;2.88;;;1.30;;
60494;SDS011;46342;49.046;11.920;2023-11-21T00:14:24;1.45;;;1.15;;
60494;SDS011;46342;49.046;11.920;2023-11-21T00:16:50;3.55;;;1.10;;
60494;SDS011;46342;49.046;11.920;2023-11-21T00:19:15;1.55;;;1.00;;
60494;SDS011;46342;49.046;11.920;2023-11-21T00:21:41;2.40;;;1.25;;
60494;SDS011;46342;49.046;11.920;2023-11-21T00:24:09;8.20;;;1.50;;
60494;SDS011;46342;49.046;11.920;2023-11-21T00:26:35;1.40;;;1.08;;
60494;SDS011;46342;49.046;11.920;2023-11-21T00:29:02;2.42;;;1.30;;
60494;SDS011;46342;49.046;11.920;2023-11-21T00:31:28;3.53;;;1.20;;
60494;SDS011;46342;49.046;11.920;2023-11-21T00:33:55;2.40;;;1.37;;
60494;SDS011;46342;49.046;11.920;2023-11-21T00:36:21;2.20;;;1.30;;
60494;SDS011;46342;49.046;11.920;2023-11-21T00:38:47;1.30;;;1.17;;
60494;SDS011;46342;49.046;11.920;2023-11-21T00:41:13;3.03;;;1.48;;
60494;SDS011;46342;49.046;11.920;2023-11-21T00:43:39;1.20;;;1.10;;
60494;SDS011;46342;49.046;11.920;2023-11-21T00:46:05;1.38;;;1.10;;
60494;SDS011;46342;49.046;11.920;2023-11-21T00:48:34;1.52;;;1.20;;
60494;SDS011;46342;49.046;11.920;2023-11-21T00:50:59;2.55;;;1.50;;
60494;SDS011;46342;49.046;11.920;2023-11-21T00:53:25;1.38;;;1.27;;
60494;SDS011;46342;49.046;11.920;2023-11-21T00:55:51;1.98;;;1.20;;
60494;SDS011;46342;49.046;11.920;2023-11-21T00:58:25;2.92;;;1.35;;
60494;SDS011;46342;49.046;11.920;2023-11-21T01:00:51;3.95;;;1.85;;
60494;SDS011;46342;49.046;11.920;2023-11-21T01:03:16;4.97;;;1.83;;
60494;SDS011;46342;49.046;11.920;2023-11-21T01:05:42;3.40;;;2.20;;
60494;SDS011;46342;49.046;11.920;2023-11-21T01:08:07;2.92;;;1.98;;
60494;SDS011;46342;49.046;11.920;2023-11-21T01:10:33;2.83;;;2.22;;
60494;SDS011;46342;49.046;11.920;2023-11-21T01:13:02;3.03;;;2.10;;
60494;SDS011;46342;49.046;11.920;2023-11-21T01:15:30;3.53;;;1.85;;
60494;SDS011;46342;49.046;11.920;2023-11-21T01:17:55;2.63;;;1.70;;
60494;SDS011;46342;49.046;11.920;2023-11-21T01:20:21;4.43;;;1.85;;
60494;SDS011;46342;49.046;11.920;2023-11-21T01:22:46;3.85;;;2.10;;
60494;SDS011;46342;49.046;11.920;2023-11-21T01:25:14;5.27;;;2.00;;
60494;SDS011;46342;49.046;11.920;2023-11-21T01:27:41;4.22;;;2.22;;
60494;SDS011;46342;49.046;11.920;2023-11-21T01:30:07;6.57;;;2.00;;
60494;SDS011;46342;49.046;11.920;2023-11-21T01:32:35;5.65;;;2.05;;
60494;SDS011;46342;49.046;11.920;2023-11-21T01:35:01;3.15;;;1.85;;
60494;SDS011;46342;49.046;11.920;2023-11-21T01:37:30;2.42;;;1.60;;
60494;SDS011;46342;49.046;11.920;2023-11-21T01:39:56;1.48;;;1.38;;
60494;SDS011;46342;49.046;11.920;2023-11-21T01:42:21;3.15;;;1.50;;
60494;SDS011;46342;49.046;11.920;2023-11-21T01:44:47;2.45;;;1.40;;
60494;SDS011;46342;49.046;11.920;2023-11-21T01:47:13;2.95;;;1.27;;
60494;SDS011;46342;49.046;11.920;2023-11-21T01:49:40;2.53;;;1.33;;
60494;SDS011;46342;49.046;11.920;2023-11-21T01:52:10;3.08;;;1.23;;
60494;SDS011;46342;49.046;11.920;2023-11-21T01:54:36;3.55;;;1.30;;
60494;SDS011;46342;49.046;11.920;2023-11-21T01:57:03;1.27;;;1.05;;
60494;SDS011;46342;49.046;11.920;2023-11-21T01:59:33;3.50;;;1.42;;
60494;SDS011;46342;49.046;11.920;2023-11-21T02:02:03;2.65;;;1.17;;
60494;SDS011;46342;49.046;11.920;2023-11-21T02:04:31;1.83;;;1.23;;
60494;SDS011;46342;49.046;11.920;2023-11-21T02:06:57;1.77;;;1.13;;
60494;SDS011;46342;49.046;11.920;2023-11-21T02:09:26;4.38;;;1.10;;
60494;SDS011;46342;49.046;11.920;2023-11-21T02:11:53;0.90;;;0.90;;
60494;SDS011;46342;49.046;11.920;2023-11-21T02:14:19;1.67;;;1.02;;
60494;SDS011;46342;49.046;11.920;2023-11-21T02:16:47;2.33;;;1.00;;
60494;SDS011;46342;49.046;11.920;2023-11-21T02:19:19;0.65;;;0.65;;
60494;SDS011;46342;49.046;11.920;2023-11-21T02:21:51;0.93;;;0.65;;
60494;SDS011;46342;49.046;11.920;2023-11-21T02:24:23;0.73;;;0.70;;
60494;SDS011;46342;49.046;11.920;2023-11-21T02:26:49;0.95;;;0.60;;
60494;SDS011;46342;49.046;11.920;2023-11-21T02:29:19;1.27;;;0.88;;
60494;SDS011;46342;49.046;11.920;2023-11-21T02:31:47;4.03;;;1.08;;
60494;SDS011;46342;49.046;11.920;2023-11-21T02:34:16;1.58;;;0.75;;
60494;SDS011;46342;49.046;11.920;2023-11-21T02:36:43;1.80;;;0.80;;
60494;SDS011;46342;49.046;11.920;2023-11-21T02:39:09;0.90;;;0.80;;
60494;SDS011;46342;49.046;11.920;2023-11-21T02:41:36;2.22;;;1.00;;
60494;SDS011;46342;49.046;11.920;2023-11-21T02:44:03;1.23;;;0.90;;
60494;SDS011;46342;49.046;11.920;2023-11-21T02:48:58;2.35;;;0.70;;
60494;SDS011;46342;49.046;11.920;2023-11-21T02:51:27;1.75;;;0.70;;
60494;SDS011;46342;49.046;11.920;2023-11-21T02:53:53;0.80;;;0.80;;
60494;SDS011;46342;49.046;11.920;2023-11-21T02:56:19;1.05;;;0.80;;
60494;SDS011;46342;49.046;11.920;2023-11-21T02:58:45;2.08;;;0.90;;
60494;SDS011;46342;49.046;11.920;2023-11-21T03:01:10;1.52;;;1.05;;
60494;SDS011;46342;49.046;11.920;2023-11-21T03:03:37;1.23;;;1.13;;
60494;SDS011;46342;49.046;11.920;2023-11-21T03:06:05;1.98;;;0.70;;
60494;SDS011;46342;49.046;11.920;2023-11-21T03:08:31;3.00;;;1.00;;
60494;SDS011;46342;49.046;11.920;2023-11-21T03:10:57;1.77;;;0.90;;
60494;SDS011;46342;49.046;11.920;2023-11-21T03:13:23;0.70;;;0.70;;
60494;SDS011;46342;49.046;11.920;2023-11-21T03:15:48;1.17;;;0.80;;
60494;SDS011;46342;49.046;11.920;2023-11-21T03:18:14;0.70;;;0.70;;
60494;SDS011;46342;49.046;11.920;2023-11-21T03:20:40;2.63;;;0.93;;
60494;SDS011;46342;49.046;11.920;2023-11-21T03:23:06;1.30;;;1.20;;
60494;SDS011;46342;49.046;11.920;2023-11-21T03:25:32;2.72;;;1.25;;
60494;SDS011;46342;49.046;11.920;2023-11-21T03:27:57;2.65;;;1.48;;
60494;SDS011;46342;49.046;11.920;2023-11-21T03:30:23;4.82;;;1.77;;
60494;SDS011;46342;49.046;11.920;2023-11-21T03:32:48;7.05;;;2.58;;
60494;SDS011;46342;49.046;11.920;2023-11-21T03:35:14;9.20;;;3.45;;
60494;SDS011;46342;49.046;11.920;2023-11-21T03:37:39;8.85;;;3.47;;
60494;SDS011;46342;49.046;11.920;2023-11-21T03:40:06;8.77;;;2.88;;
60494;SDS011;46342;49.046;11.920;2023-11-21T03:42:34;6.10;;;3.05;;
60494;SDS011;46342;49.046;11.920;2023-11-21T03:44:59;8.65;;;2.75;;
60494;SDS011;46342;49.046;11.920;2023-11-21T03:47:26;5.80;;;2.80;;
60494;SDS011;46342;49.046;11.920;2023-11-21T03:49:52;7.30;;;2.17;;
60494;SDS011;46342;49.046;11.920;2023-11-21T03:52:18;6.10;;;2.60;;
60494;SDS011;46342;49.046;11.920;2023-11-21T03:54:43;5.32;;;2.25;;
60494;SDS011;46342;49.046;11.920;2023-11-21T03:57:09;5.45;;;2.17;;
60494;SDS011;46342;49.046;11.920;2023-11-21T03:59:35;4.57;;;2.22;;
60494;SDS011;46342;49.046;11.920;2023-11-21T04:02:01;4.95;;;2.13;;
60494;SDS011;46342;49.046;11.920;2023-11-21T04:04:26;2.70;;;1.70;;
60494;SDS011;46342;49.046;11.920;2023-11-21T04:06:52;3.25;;;1.50;;
60494;SDS011;46342;49.046;11.920;2023-11-21T04:09:18;2.65;;;1.50;;
60494;SDS011;46342;49.046;11.920;2023-11-21T04:11:43;2.58;;;1.40;;
60494;SDS011;46342;49.046;11.920;2023-11-21T04:14:10;3.20;;;1.10;;
60494;SDS011;46342;49.046;11.920;2023-11-21T04:16:36;3.22;;;1.25;;
60494;SDS011;46342;49.046;11.920;2023-11-21T04:19:01;8.93;;;5.03;;
60494;SDS011;46342;49.046;11.920;2023-11-21T04:21:27;6.60;;;3.92;;
60494;SDS011;46342;49.046;11.920;2023-11-21T04:23:52;6.55;;;2.97;;
60494;SDS011;46342;49.046;11.920;2023-11-21T04:26:18;2.38;;;1.50;;
60494;SDS011;46342;49.046;11.920;2023-11-21T04:28:43;2.10;;;1.30;;
60494;SDS011;46342;49.046;11.920;2023-11-21T04:31:09;1.17;;;1.00;;
60494;SDS011;46342;49.046;11.920;2023-11-21T04:33:35;1.95;;;1.00;;
60494;SDS011;46342;49.046;11.920;2023-11-21T04:36:01;0.90;;;0.90;;
60494;SDS011;46342;49.046;11.920;2023-11-21T04:38:27;1.10;;;1.00;;
60494;SDS011;46342;49.046;11.920;2023-11-21T04:40:52;2.63;;;0.95;;
60494;SDS011;46342;49.046;11.920;2023-11-21T04:43:18;1.60;;;0.80;;
60494;SDS011;46342;49.046;11.920;2023-11-21T04:45:43;1.20;;;1.08;;
60494;SDS011;46342;49.046;11.920;2023-11-21T04:48:09;2.10;;;1.20;;
60494;SDS011;46342;49.046;11.920;2023-11-21T04:50:35;1.92;;;1.10;;
60494;SDS011;46342;49.046;11.920;2023-11-21T04:53:00;1.77;;;1.10;;
60494;SDS011;46342;49.046;11.920;2023-11-21T04:55:26;1.15;;;1.00;;
60494;SDS011;46342;49.046;11.920;2023-11-21T04:57:53;1.60;;;1.00;;
60494;SDS011;46342;49.046;11.920;2023-11-21T05:00:19;2.10;;;1.35;;
60494;SDS011;46342;49.046;11.920;2023-11-21T05:02:46;2.17;;;1.30;;
60494;SDS011;46342;49.046;11.920;2023-11-21T05:05:11;2.58;;;1.02;;
60494;SDS011;46342;49.046;11.920;2023-11-21T05:07:38;2.25;;;1.20;;
60494;SDS011;46342;49.046;11.920;2023-11-21T05:10:07;1.25;;;1.15;;
60494;SDS011;46342;49.046;11.920;2023-11-21T05:12:37;1.45;;;1.10;;
60494;SDS011;46342;49.046;11.920;2023-11-21T05:15:06;1.15;;;1.05;;
60494;SDS011;46342;49.046;11.920;2023-11-21T05:17:36;3.95;;;1.38;;
60494;SDS011;46342;49.046;11.920;2023-11-21T05:20:03;2.17;;;1.02;;
60494;SDS011;46342;49.046;11.920;2023-11-21T05:22:33;3.50;;;1.52;;
60494;SDS011;46342;49.046;11.920;2023-11-21T05:24:59;1.35;;;1.13;;
60494;SDS011;46342;49.046;11.920;2023-11-21T05:27:25;2.17;;;1.50;;
60494;SDS011;46342;49.046;11.920;2023-11-21T05:29:51;2.10;;;1.35;;
60494;SDS011;46342;49.046;11.920;2023-11-21T05:32:17;2.63;;;1.40;;
60494;SDS011;46342;49.046;11.920;2023-11-21T05:34:42;1.70;;;1.30;;
60494;SDS011;46342;49.046;11.920;2023-11-21T05:37:08;2.55;;;1.20;;
60494;SDS011;46342;49.046;11.920;2023-11-21T05:39:34;1.23;;;1.10;;
60494;SDS011;46342;49.046;11.920;2023-11-21T05:42:00;1.55;;;1.40;;
60494;SDS011;46342;49.046;11.920;2023-11-21T05:44:26;1.60;;;1.40;;
60494;SDS011;46342;49.046;11.920;2023-11-21T05:46:52;2.35;;;1.30;;
60494;SDS011;46342;49.046;11.920;2023-11-21T05:49:18;2.67;;;1.23;;
60494;SDS011;46342;49.046;11.920;2023-11-21T05:51:46;2.05;;;1.20;;
60494;SDS011;46342;49.046;11.920;2023-11-21T05:54:12;3.33;;;1.25;;
60494;SDS011;46342;49.046;11.920;2023-11-21T05:56:38;1.10;;;1.00;;
60494;SDS011;46342;49.046;11.920;2023-11-21T05:59:03;1.20;;;1.10;;
60494;SDS011;46342;49.046;11.920;2023-11-21T06:01:29;1.08;;;1.00;;
60494;SDS011;46342;49.046;11.920;2023-11-21T06:03:54;1.92;;;1.10;;
60494;SDS011;46342;49.046;11.920;2023-11-21T06:06:20;1.33;;;1.23;;
60494;SDS011;46342;49.046;11.920;2023-11-21T06:08:48;2.53;;;1.60;;
60494;SDS011;46342;49.046;11.920;2023-11-21T06:11:14;1.92;;;1.60;;
60494;SDS011;46342;49.046;11.920;2023-11-21T06:13:41;3.00;;;1.50;;
60494;SDS011;46342;49.046;11.920;2023-11-21T06:16:07;3.58;;;1.30;;
60494;SDS011;46342;49.046;11.920;2023-11-21T06:18:33;2.45;;;1.40;;
60494;SDS011;46342;49.046;11.920;2023-11-21T06:21:00;2.70;;;1.30;;
60494;SDS011;46342;49.046;11.920;2023-11-21T06:23:25;2.20;;;1.30;;
60494;SDS011;46342;49.046;11.920;2023-11-21T06:25:51;1.85;;;1.02;;
60494;SDS011;46342;49.046;11.920;2023-11-21T06:28:17;2.80;;;1.33;;
60494;SDS011;46342;49.046;11.920;2023-11-21T06:30:43;3.53;;;1.33;;
60494;SDS011;46342;49.046;11.920;2023-11-21T06:33:10;1.33;;;1.15;;
60494;SDS011;46342;49.046;11.920;2023-11-21T06:35:36;1.95;;;1.30;;
60494;SDS011;46342;49.046;11.920;2023-11-21T06:38:01;3.15;;;1.90;;
60494;SDS011;46342;49.046;11.920;2023-11-21T06:40:27;3.90;;;2.42;;
60494;SDS011;46342;49.046;11.920;2023-11-21T06:42:53;4.13;;;2.50;;
60494;SDS011;46342;49.046;11.920;2023-11-21T06:45:19;8.50;;;2.90;;
60494;SDS011;46342;49.046;11.920;2023-11-21T06:47:45;3.13;;;2.13;;
60494;SDS011;46342;49.046;11.920;2023-11-21T06:50:10;2.65;;;1.73;;
60494;SDS011;46342;49.046;11.920;2023-11-21T06:52:36;3.33;;;1.85;;
60494;SDS011;46342;49.046;11.920;2023-11-21T06:55:02;1.90;;;1.70;;
60494;SDS011;46342;49.046;11.920;2023-11-21T06:57:28;2.38;;;1.60;;
60494;SDS011;46342;49.046;11.920;2023-11-21T06:59:54;1.98;;;1.48;;
60494;SDS011;46342;49.046;11.920;2023-11-21T07:02:19;1.92;;;1.63;;
60494;SDS011;46342;49.046;11.920;2023-11-21T07:04:45;2.00;;;1.70;;
60494;SDS011;46342;49.046;11.920;2023-11-21T07:07:11;9.00;;;1.77;;
60494;SDS011;46342;49.046;11.920;2023-11-21T07:09:37;1.73;;;1.52;;
60494;SDS011;46342;49.046;11.920;2023-11-21T07:12:03;6.78;;;1.90;;
60494;SDS011;46342;49.046;11.920;2023-11-21T07:14:32;1.95;;;1.45;;
60494;SDS011;46342;49.046;11.920;2023-11-21T07:17:02;1.73;;;1.60;;
60494;SDS011;46342;49.046;11.920;2023-11-21T07:19:27;7.57;;;1.75;;
60494;SDS011;46342;49.046;11.920;2023-11-21T07:21:54;2.47;;;1.83;;
60494;SDS011;46342;49.046;11.920;2023-11-21T07:24:20;6.28;;;2.63;;
60494;SDS011;46342;49.046;11.920;2023-11-21T07:26:46;10.82;;;4.28;;
60494;SDS011;46342;49.046;11.920;2023-11-21T07:29:12;7.63;;;4.50;;
60494;SDS011;46342;49.046;11.920;2023-11-21T07:31:38;4.20;;;2.40;;
60494;SDS011;46342;49.046;11.920;2023-11-21T07:34:04;4.22;;;2.55;;
60494;SDS011;46342;49.046;11.920;2023-11-21T07:36:30;2.63;;;1.92;;
60494;SDS011;46342;49.046;11.920;2023-11-21T07:38:56;4.70;;;2.03;;
60494;SDS011;46342;49.046;11.920;2023-11-21T07:41:22;4.43;;;2.65;;
60494;SDS011;46342;49.046;11.920;2023-11-21T07:43:47;3.67;;;2.20;;
60494;SDS011;46342;49.046;11.920;2023-11-21T07:46:13;2.55;;;1.90;;
60494;SDS011;46342;49.046;11.920;2023-11-21T07:48:39;2.33;;;1.80;;
60494;SDS011;46342;49.046;11.920;2023-11-21T07:51:06;2.22;;;1.80;;
60494;SDS011;46342;49.046;11.920;2023-11-21T07:53:33;4.63;;;1.80;;
60494;SDS011;46342;49.046;11.920;2023-11-21T07:56:05;2.88;;;1.42;;
60494;SDS011;46342;49.046;11.920;2023-11-21T07:58:35;3.92;;;1.88;;
60494;SDS011;46342;49.046;11.920;2023-11-21T08:01:01;1.88;;;1.30;;
60494;SDS011;46342;49.046;11.920;2023-11-21T08:03:28;3.47;;;2.17;;
60494;SDS011;46342;49.046;11.920;2023-11-21T08:05:55;3.15;;;1.90;;
60494;SDS011;46342;49.046;11.920;2023-11-21T08:08:24;1.92;;;1.70;;
60494;SDS011;46342;49.046;11.920;2023-11-21T08:10:50;2.42;;;1.67;;
60494;SDS011;46342;49.046;11.920;2023-11-21T08:13:25;4.10;;;1.60;;
60494;SDS011;46342;49.046;11.920;2023-11-21T08:15:55;3.03;;;1.92;;
60494;SDS011;46342;49.046;11.920;2023-11-21T08:18:26;4.53;;;2.10;;
60494;SDS011;46342;49.046;11.920;2023-11-21T08:20:52;2.03;;;1.70;;
60494;SDS011;46342;49.046;11.920;2023-11-21T08:25:50;1.45;;;1.35;;
60494;SDS011;46342;49.046;11.920;2023-11-21T08:28:15;1.80;;;1.30;;
60494;SDS011;46342;49.046;11.920;2023-11-21T08:30:41;1.48;;;1.38;;
60494;SDS011;46342;49.046;11.920;2023-11-21T08:33:07;1.98;;;1.38;;
60494;SDS011;46342;49.046;11.920;2023-11-21T08:35:33;3.03;;;1.60;;
60494;SDS011;46342;49.046;11.920;2023-11-21T08:37:59;2.25;;;1.48;;
60494;SDS011;46342;49.046;11.920;2023-11-21T08:40:25;2.10;;;1.70;;
60494;SDS011;46342;49.046;11.920;2023-11-21T08:42:51;3.83;;;1.90;;
60494;SDS011;46342;49.046;11.920;2023-11-21T08:45:17;2.50;;;1.98;;
60494;SDS011;46342;49.046;11.920;2023-11-21T08:47:44;2.05;;;1.55;;
60494;SDS011;46342;49.046;11.920;2023-11-21T08:50:10;2.60;;;1.50;;
60494;SDS011;46342;49.046;11.920;2023-11-21T08:52:37;2.00;;;1.63;;
60494;SDS011;46342;49.046;11.920;2023-11-21T08:55:04;2.72;;;1.70;;
60494;SDS011;46342;49.046;11.920;2023-11-21T08:57:36;2.75;;;1.98;;
60494;SDS011;46342;49.046;11.920;2023-11-21T09:00:05;2.13;;;1.65;;
60494;SDS011;46342;49.046;11.920;2023-11-21T09:02:36;1.60;;;1.42;;
60494;SDS011;46342;49.046;11.920;2023-11-21T09:05:07;1.90;;;1.65;;
60494;SDS011;46342;49.046;11.920;2023-11-21T09:07:34;1.97;;;1.77;;
60494;SDS011;46342;49.046;11.920;2023-11-21T09:10:00;2.85;;;1.50;;
60494;SDS011;46342;49.046;11.920;2023-11-21T09:12:25;2.58;;;1.42;;
60494;SDS011;46342;49.046;11.920;2023-11-21T09:14:51;1.60;;;1.50;;
60494;SDS011;46342;49.046;11.920;2023-11-21T09:17:16;1.60;;;1.17;;
60494;SDS011;46342;49.046;11.920;2023-11-21T09:19:42;3.35;;;2.35;;
60494;SDS011;46342;49.046;11.920;2023-11-21T09:22:10;1.48;;;1.38;;
60494;SDS011;46342;49.046;11.920;2023-11-21T09:24:36;2.03;;;1.65;;
60494;SDS011;46342;49.046;11.920;2023-11-21T09:27:02;1.48;;;1.38;;
60494;SDS011;46342;49.046;11.920;2023-11-21T09:29:30;1.20;;;1.20;;
60494;SDS011;46342;49.046;11.920;2023-11-21T09:31:56;1.63;;;1.40;;
60494;SDS011;46342;49.046;11.920;2023-11-21T09:34:24;2.65;;;1.50;;
60494;SDS011;46342;49.046;11.920;2023-11-21T09:36:50;1.70;;;1.60;;
60494;SDS011;46342;49.046;11.920;2023-11-21T09:39:16;4.80;;;2.70;;
60494;SDS011;46342;49.046;11.920;2023-11-21T09:41:51;3.55;;;1.98;;
60494;SDS011;46342;49.046;11.920;2023-11-21T09:47:09;1.40;;;1.30;;
60494;SDS011;46342;49.046;11.920;2023-11-21T09:49:38;1.50;;;1.30;;
60494;SDS011;46342;49.046;11.920;2023-11-21T09:52:05;1.30;;;1.20;;
60494;SDS011;46342;49.046;11.920;2023-11-21T09:54:34;2.35;;;1.33;;
60494;SDS011;46342;49.046;11.920;2023-11-21T09:57:00;2.35;;;1.48;;
60494;SDS011;46342;49.046;11.920;2023-11-21T09:59:30;2.08;;;1.40;;
60494;SDS011;46342;49.046;11.920;2023-11-21T10:01:59;2.65;;;1.30;;
60494;SDS011;46342;49.046;11.920;2023-11-21T10:04:25;3.22;;;2.22;;
60494;SDS011;46342;49.046;11.920;2023-11-21T10:06:51;2.55;;;1.92;;
60494;SDS011;46342;49.046;11.920;2023-11-21T10:09:18;1.98;;;1.20;;
60494;SDS011;46342;49.046;11.920;2023-11-21T10:11:45;2.77;;;1.10;;
60494;SDS011;46342;49.046;11.920;2023-11-21T10:14:14;1.15;;;1.00;;
60494;SDS011;46342;49.046;11.920;2023-11-21T10:16:43;1.23;;;0.95;;
60494;SDS011;46342;49.046;11.920;2023-11-21T10:19:12;1.67;;;1.33;;
60494;SDS011;46342;49.046;11.920;2023-11-21T10:21:41;1.25;;;1.10;;
60494;SDS011;46342;49.046;11.920;2023-11-21T10:24:06;1.40;;;1.25;;
60494;SDS011;46342;49.046;11.920;2023-11-21T10:26:32;1.15;;;1.05;;
60494;SDS011;46342;49.046;11.920;2023-11-21T10:28:59;1.60;;;1.30;;
60494;SDS011;46342;49.046;11.920;2023-11-21T10:31:28;2.25;;;1.00;;
60494;SDS011;46342;49.046;11.920;2023-11-21T10:34:18;1.85;;;1.02;;
60494;SDS011;46342;49.046;11.920;2023-11-21T10:36:43;1.30;;;1.02;;
60494;SDS011;46342;49.046;11.920;2023-11-21T10:39:13;1.00;;;1.00;;
60494;SDS011;46342;49.046;11.920;2023-11-21T10:41:43;1.65;;;0.93;;
60494;SDS011;46342;49.046;11.920;2023-11-21T10:44:10;1.08;;;0.90;;
60494;SDS011;46342;49.046;11.920;2023-11-21T10:46:36;0.80;;;0.80;;
60494;SDS011;46342;49.046;11.920;2023-11-21T10:49:03;0.80;;;0.80;;
60494;SDS011;46342;49.046;11.920;2023-11-21T10:51:29;0.85;;;0.82;;
60494;SDS011;46342;49.046;11.920;2023-11-21T10:53:54;1.80;;;0.90;;
60494;SDS011;46342;49.046;11.920;2023-11-21T10:56:23;1.13;;;1.05;;
60494;SDS011;46342;49.046;11.920;2023-11-21T10:58:49;1.13;;;0.80;;
60494;SDS011;46342;49.046;11.920;2023-11-21T11:01:18;1.88;;;1.10;;
60494;SDS011;46342;49.046;11.920;2023-11-21T11:03:46;0.70;;;0.70;;
60494;SDS011;46342;49.046;11.920;2023-11-21T11:06:13;2.28;;;1.30;;
60494;SDS011;46342;49.046;11.920;2023-11-21T11:08:39;1.27;;;1.02;;
60494;SDS011;46342;49.046;11.920;2023-11-21T11:11:06;1.15;;;0.95;;
60494;SDS011;46342;49.046;11.920;2023-11-21T11:13:32;1.20;;;1.10;;
60494;SDS011;46342;49.046;11.920;2023-11-21T11:15:59;1.17;;;0.90;;
60494;SDS011;46342;49.046;11.920;2023-11-21T11:18:26;1.30;;;1.20;;
60494;SDS011;46342;49.046;11.920;2023-11-21T11:21:01;1.10;;;1.00;;
60494;SDS011;46342;49.046;11.920;2023-11-21T11:38:03;1.50;;;1.10;;
60494;SDS011;46342;49.046;11.920;2023-11-21T11:40:38;1.10;;;1.00;;
60494;SDS011;46342;49.046;11.920;2023-11-21T11:43:05;1.15;;;1.00;;
60494;SDS011;46342;49.046;11.920;2023-11-21T11:45:32;1.75;;;1.17;;
60494;SDS011;46342;49.046;11.920;2023-11-21T11:48:02;1.50;;;1.10;;
60494;SDS011;46342;49.046;11.920;2023-11-21T11:50:28;1.10;;;1.00;;
60494;SDS011;46342;49.046;11.920;2023-11-21T11:52:55;2.05;;;1.10;;
60494;SDS011;46342;49.046;11.920;2023-11-21T11:55:36;0.90;;;0.80;;
60494;SDS011;46342;49.046;11.920;2023-11-21T11:58:04;0.90;;;0.90;;
60494;SDS011;46342;49.046;11.920;2023-11-21T12:00:34;1.17;;;1.00;;
60494;SDS011;46342;49.046;11.920;2023-11-21T12:03:03;1.50;;;1.23;;
60494;SDS011;46342;49.046;11.920;2023-11-21T12:05:31;2.15;;;1.25;;
60494;SDS011;46342;49.046;11.920;2023-11-21T12:07:59;1.10;;;1.00;;
60494;SDS011;46342;49.046;11.920;2023-11-21T12:10:27;1.25;;;1.15;;
60494;SDS011;46342;49.046;11.920;2023-11-21T12:12:55;1.43;;;1.30;;
60494;SDS011;46342;49.046;11.920;2023-11-21T12:15:33;1.02;;;0.93;;
60494;SDS011;46342;49.046;11.920;2023-11-21T12:18:00;2.17;;;1.00;;
60494;SDS011;46342;49.046;11.920;2023-11-21T12:20:27;1.00;;;0.90;;
60494;SDS011;46342;49.046;11.920;2023-11-21T12:22:53;1.40;;;0.90;;
60494;SDS011;46342;49.046;11.920;2023-11-21T12:25:22;1.52;;;1.15;;
60494;SDS011;46342;49.046;11.920;2023-11-21T12:27:50;1.67;;;1.00;;
60494;SDS011;46342;49.046;11.920;2023-11-21T12:30:18;1.13;;;1.00;;
60494;SDS011;46342;49.046;11.920;2023-11-21T12:32:53;1.00;;;1.00;;
60494;SDS011;46342;49.046;11.920;2023-11-21T12:35:21;1.20;;;1.10;;
60494;SDS011;46342;49.046;11.920;2023-11-21T12:37:48;1.25;;;1.02;;
60494;SDS011;46342;49.046;11.920;2023-11-21T12:40:15;1.35;;;1.20;;
60494;SDS011;46342;49.046;11.920;2023-11-21T12:42:42;0.98;;;0.93;;
60494;SDS011;46342;49.046;11.920;2023-11-21T12:45:30;1.10;;;1.00;;
60494;SDS011;46342;49.046;11.920;2023-11-21T12:47:57;1.52;;;1.30;;
60494;SDS011;46342;49.046;11.920;2023-11-21T12:50:32;0.90;;;0.90;;
60494;SDS011;46342;49.046;11.920;2023-11-21T12:52:59;1.58;;;1.08;;
60494;SDS011;46342;49.046;11.920;2023-11-21T12:55:29;1.50;;;1.25;;
60494;SDS011;46342;49.046;11.920;2023-11-21T12:57:56;1.42;;;0.90;;
60494;SDS011;46342;49.046;11.920;2023-11-21T13:00:35;0.70;;;0.70;;
60494;SDS011;46342;49.046;11.920;2023-11-21T13:03:03;1.00;;;0.90;;
60494;SDS011;46342;49.046;11.920;2023-11-21T13:05:33;1.10;;;1.00;;
60494;SDS011;46342;49.046;11.920;2023-11-21T13:08:04;1.38;;;1.08;;
60494;SDS011;46342;49.046;11.920;2023-11-21T13:10:33;0.80;;;0.80;;
60494;SDS011;46342;49.046;11.920;2023-11-21T13:13:02;1.10;;;1.00;;
60494;SDS011;46342;49.046;11.920;2023-11-21T13:15:46;0.98;;;0.88;;
60494;SDS011;46342;49.046;11.920;2023-11-21T13:18:13;1.30;;;1.05;;
60494;SDS011;46342;49.046;11.920;2023-11-21T13:20:40;0.77;;;0.77;;
60494;SDS011;46342;49.046;11.920;2023-11-21T13:23:08;1.30;;;1.20;;
60494;SDS011;46342;49.046;11.920;2023-11-21T13:25:36;0.90;;;0.90;;
60494;SDS011;46342;49.046;11.920;2023-11-21T13:28:06;0.88;;;0.80;;
60494;SDS011;46342;49.046;11.920;2023-11-21T13:30:32;5.07;;;1.20;;
60494;SDS011;46342;49.046;11.920;2023-11-21T13:33:01;1.20;;;1.10;;
60494;SDS011;46342;49.046;11.920;2023-11-21T13:35:31;2.92;;;0.98;;
60494;SDS011;46342;49.046;11.920;2023-11-21T13:38:20;1.23;;;0.82;;
60494;SDS011;46342;49.046;11.920;2023-11-21T13:40:49;1.17;;;0.90;;
60494;SDS011;46342;49.046;11.920;2023-11-21T13:43:22;1.15;;;0.90;;
60494;SDS011;46342;49.046;11.920;2023-11-21T13:45:50;1.67;;;1.13;;
60494;SDS011;46342;49.046;11.920;2023-11-21T13:48:23;1.02;;;1.02;;
60494;SDS011;46342;49.046;11.920;2023-11-21T13:51:09;0.80;;;0.80;;
60494;SDS011;46342;49.046;11.920;2023-11-21T13:53:42;1.20;;;1.10;;
60494;SDS011;46342;49.046;11.920;2023-11-21T13:56:13;1.30;;;0.90;;
60494;SDS011;46342;49.046;11.920;2023-11-21T13:58:43;1.00;;;1.00;;
60494;SDS011;46342;49.046;11.920;2023-11-21T14:01:16;0.73;;;0.73;;
60494;SDS011;46342;49.046;11.920;2023-11-21T14:04:02;0.88;;;0.88;;
60494;SDS011;46342;49.046;11.920;2023-11-21T14:06:48;3.42;;;1.10;;
60494;SDS011;46342;49.046;11.920;2023-11-21T14:11:48;1.58;;;0.90;;
60494;SDS011;46342;49.046;11.920;2023-11-21T14:14:18;0.88;;;0.88;;
60494;SDS011;46342;49.046;11.920;2023-11-21T14:16:45;1.27;;;1.00;;
60494;SDS011;46342;49.046;11.920;2023-11-21T14:19:11;0.70;;;0.70;;
60494;SDS011;46342;49.046;11.920;2023-11-21T14:21:43;0.82;;;0.82;;
60494;SDS011;46342;49.046;11.920;2023-11-21T14:24:09;1.05;;;1.00;;
60494;SDS011;46342;49.046;11.920;2023-11-21T14:26:37;1.15;;;1.05;;
60494;SDS011;46342;49.046;11.920;2023-11-21T14:29:07;3.40;;;1.00;;
60494;SDS011;46342;49.046;11.920;2023-11-21T14:31:34;0.70;;;0.70;;
60494;SDS011;46342;49.046;11.920;2023-11-21T14:34:00;2.33;;;1.30;;
60494;SDS011;46342;49.046;11.920;2023-11-21T14:36:31;1.05;;;0.98;;
60494;SDS011;46342;49.046;11.920;2023-11-21T14:38:57;0.98;;;0.90;;
60494;SDS011;46342;49.046;11.920;2023-11-21T14:41:22;1.52;;;0.88;;
60494;SDS011;46342;49.046;11.920;2023-11-21T14:43:52;2.15;;;1.02;;
60494;SDS011;46342;49.046;11.920;2023-11-21T14:46:19;4.40;;;4.00;;
60494;SDS011;46342;49.046;11.920;2023-11-21T14:48:45;2.00;;;1.90;;
60494;SDS011;46342;49.046;11.920;2023-11-21T14:51:23;1.38;;;1.27;;
60494;SDS011;46342;49.046;11.920;2023-11-21T14:53:55;1.10;;;1.00;;
60494;SDS011;46342;49.046;11.920;2023-11-21T14:56:34;1.20;;;0.95;;
60494;SDS011;46342;49.046;11.920;2023-11-21T14:59:02;1.17;;;0.90;;
60494;SDS011;46342;49.046;11.920;2023-11-21T15:01:34;1.42;;;1.33;;